sensor_id;sensor_type;location;lat;lon;timestamp;pressure;altitude;pressure_sealevel;temperature;humidity
38612;BME280;24368;52.156;20.788;2022-07-29T00:02:37;100978.66;;;15.55;82.56
38612;BME280;24368;52.156;20.788;2022-07-29T00:07:39;100983.46;;;15.59;82.70
38612;BME280;24368;52.156;20.788;2022-07-29T00:12:40;100980.98;;;15.60;81.61
38612;BME280;24368;52.156;20.788;2022-07-29T00:17:41;100982.30;;;15.68;81.58
38612;BME280;24368;52.156;20.788;2022-07-29T00:22:43;100983.27;;;15.72;81.00
38612;BME280;24368;52.156;20.788;2022-07-29T00:27:44;100986.13;;;15.67;81.17
38612;BME280;24368;52.156;20.788;2022-07-29T00:32:47;100989.35;;;15.53;82.31
38612;BME280;24368;52.156;20.788;2022-07-29T00:37:48;100987.73;;;15.39;82.70
38612;BME280;24368;52.156;20.788;2022-07-29T00:42:50;100985.10;;;15.30;83.12
38612;BME280;24368;52.156;20.788;2022-07-29T00:47:52;100975.10;;;15.24;82.96
38612;BME280;24368;52.156;20.788;2022-07-29T00:52:53;100969.03;;;15.19;83.21
38612;BME280;24368;52.156;20.788;2022-07-29T00:57:55;100971.67;;;15.23;83.15
38612;BME280;24368;52.156;20.788;2022-07-29T01:02:56;100972.06;;;15.21;82.72
38612;BME280;24368;52.156;20.788;2022-07-29T01:07:58;100968.70;;;15.16;82.98
38612;BME280;24368;52.156;20.788;2022-07-29T01:13:00;100969.09;;;15.14;82.70
38612;BME280;24368;52.156;20.788;2022-07-29T01:18:07;100975.69;;;15.07;83.12
38612;BME280;24368;52.156;20.788;2022-07-29T01:23:21;100975.19;;;15.04;83.47
38612;BME280;24368;52.156;20.788;2022-07-29T01:33:54;100976.16;;;14.83;85.13
38612;BME280;24368;52.156;20.788;2022-07-29T01:38:58;100980.25;;;14.69;86.02
38612;BME280;24368;52.156;20.788;2022-07-29T01:44:10;100980.69;;;14.58;86.29
38612;BME280;24368;52.156;20.788;2022-07-29T01:49:14;100983.88;;;14.44;87.17
38612;BME280;24368;52.156;20.788;2022-07-29T01:54:18;100986.33;;;14.40;87.69
38612;BME280;24368;52.156;20.788;2022-07-29T01:59:21;100979.84;;;14.29;88.13
38612;BME280;24368;52.156;20.788;2022-07-29T02:04:22;100985.77;;;14.25;88.34
38612;BME280;24368;52.156;20.788;2022-07-29T02:09:24;100988.09;;;14.16;87.45
38612;BME280;24368;52.156;20.788;2022-07-29T02:14:27;100993.23;;;14.15;87.46
38612;BME280;24368;52.156;20.788;2022-07-29T02:19:30;100981.36;;;14.21;87.00
38612;BME280;24368;52.156;20.788;2022-07-29T02:24:33;100982.70;;;14.22;87.68
38612;BME280;24368;52.156;20.788;2022-07-29T02:29:37;100986.52;;;14.04;86.59
38612;BME280;24368;52.156;20.788;2022-07-29T02:34:38;100980.50;;;13.96;87.29
38612;BME280;24368;52.156;20.788;2022-07-29T02:39:41;100984.61;;;13.90;88.34
38612;BME280;24368;52.156;20.788;2022-07-29T02:44:43;100990.29;;;13.82;88.30
38612;BME280;24368;52.156;20.788;2022-07-29T02:55:00;100986.02;;;13.84;88.78
38612;BME280;24368;52.156;20.788;2022-07-29T03:00:05;100988.90;;;13.82;88.84
38612;BME280;24368;52.156;20.788;2022-07-29T03:05:08;100986.52;;;13.86;88.72
38612;BME280;24368;52.156;20.788;2022-07-29T03:16:07;100989.45;;;14.18;89.48
38612;BME280;24368;52.156;20.788;2022-07-29T03:21:09;100985.48;;;14.29;89.73
38612;BME280;24368;52.156;20.788;2022-07-29T03:26:11;100985.13;;;14.39;89.99
38612;BME280;24368;52.156;20.788;2022-07-29T03:31:13;100991.45;;;14.45;90.46
38612;BME280;24368;52.156;20.788;2022-07-29T03:36:14;100984.45;;;14.54;90.31
38612;BME280;24368;52.156;20.788;2022-07-29T03:41:15;100991.21;;;14.66;89.50
38612;BME280;24368;52.156;20.788;2022-07-29T03:46:18;100994.85;;;14.78;89.16
38612;BME280;24368;52.156;20.788;2022-07-29T03:51:21;100994.89;;;14.87;89.06
38612;BME280;24368;52.156;20.788;2022-07-29T03:56:23;100995.13;;;14.95;88.70
38612;BME280;24368;52.156;20.788;2022-07-29T04:01:25;100990.52;;;14.98;89.09
38612;BME280;24368;52.156;20.788;2022-07-29T04:06:28;100991.73;;;15.07;88.82
38612;BME280;24368;52.156;20.788;2022-07-29T04:11:29;100997.84;;;15.09;88.83
38612;BME280;24368;52.156;20.788;2022-07-29T04:16:31;101001.10;;;15.13;88.67
38612;BME280;24368;52.156;20.788;2022-07-29T04:21:36;100997.40;;;15.20;89.06
38612;BME280;24368;52.156;20.788;2022-07-29T04:26:38;100995.21;;;15.34;88.65
38612;BME280;24368;52.156;20.788;2022-07-29T04:31:39;100992.95;;;15.49;88.25
38612;BME280;24368;52.156;20.788;2022-07-29T04:36:41;100994.77;;;15.57;88.27
38612;BME280;24368;52.156;20.788;2022-07-29T04:41:42;100996.02;;;15.59;88.24
38612;BME280;24368;52.156;20.788;2022-07-29T04:46:44;101000.91;;;15.60;88.64
38612;BME280;24368;52.156;20.788;2022-07-29T04:51:45;101007.94;;;15.61;89.06
38612;BME280;24368;52.156;20.788;2022-07-29T04:56:47;101012.87;;;15.66;89.15
38612;BME280;24368;52.156;20.788;2022-07-29T05:01:48;101009.80;;;15.79;89.14
38612;BME280;24368;52.156;20.788;2022-07-29T05:06:49;101017.01;;;15.89;88.86
38612;BME280;24368;52.156;20.788;2022-07-29T05:11:51;101017.92;;;16.02;88.41
38612;BME280;24368;52.156;20.788;2022-07-29T05:16:52;101027.03;;;16.10;87.64
38612;BME280;24368;52.156;20.788;2022-07-29T05:21:57;101033.17;;;16.13;86.12
38612;BME280;24368;52.156;20.788;2022-07-29T05:26:59;101028.77;;;16.13;86.42
38612;BME280;24368;52.156;20.788;2022-07-29T05:32:00;101027.25;;;16.12;86.84
38612;BME280;24368;52.156;20.788;2022-07-29T05:37:01;101023.35;;;16.18;87.06
38612;BME280;24368;52.156;20.788;2022-07-29T05:42:03;101023.24;;;16.26;86.17
38612;BME280;24368;52.156;20.788;2022-07-29T05:47:08;101017.66;;;16.40;85.69
38612;BME280;24368;52.156;20.788;2022-07-29T05:52:10;101016.70;;;16.44;85.50
38612;BME280;24368;52.156;20.788;2022-07-29T05:57:15;101023.10;;;16.58;85.05
38612;BME280;24368;52.156;20.788;2022-07-29T06:02:17;101016.91;;;16.70;84.44
38612;BME280;24368;52.156;20.788;2022-07-29T06:07:18;101013.17;;;16.61;84.46
38612;BME280;24368;52.156;20.788;2022-07-29T06:12:19;101013.92;;;16.59;84.45
38612;BME280;24368;52.156;20.788;2022-07-29T06:17:21;101011.70;;;16.64;84.19
38612;BME280;24368;52.156;20.788;2022-07-29T06:22:22;101011.10;;;16.65;83.90
38612;BME280;24368;52.156;20.788;2022-07-29T06:27:24;101011.19;;;16.72;83.29
38612;BME280;24368;52.156;20.788;2022-07-29T06:32:26;101011.17;;;16.70;83.74
38612;BME280;24368;52.156;20.788;2022-07-29T06:37:27;101012.09;;;16.92;82.10
38612;BME280;24368;52.156;20.788;2022-07-29T06:42:28;101009.53;;;17.08;81.42
38612;BME280;24368;52.156;20.788;2022-07-29T06:47:30;101017.87;;;17.27;80.28
38612;BME280;24368;52.156;20.788;2022-07-29T06:52:31;101015.83;;;17.45;79.98
38612;BME280;24368;52.156;20.788;2022-07-29T06:57:33;101012.95;;;17.48;80.18
38612;BME280;24368;52.156;20.788;2022-07-29T07:02:35;101014.94;;;17.54;79.30
38612;BME280;24368;52.156;20.788;2022-07-29T07:07:36;101007.33;;;17.68;77.78
38612;BME280;24368;52.156;20.788;2022-07-29T07:12:37;101010.27;;;17.58;78.32
38612;BME280;24368;52.156;20.788;2022-07-29T07:17:39;101006.05;;;17.56;78.94
38612;BME280;24368;52.156;20.788;2022-07-29T07:22:40;101007.85;;;17.69;78.32
38612;BME280;24368;52.156;20.788;2022-07-29T07:27:42;101004.73;;;17.80;77.39
38612;BME280;24368;52.156;20.788;2022-07-29T07:32:43;101002.39;;;17.96;77.06
38612;BME280;24368;52.156;20.788;2022-07-29T07:37:45;101003.48;;;18.14;75.07
38612;BME280;24368;52.156;20.788;2022-07-29T07:42:46;101004.56;;;18.26;74.69
38612;BME280;24368;52.156;20.788;2022-07-29T07:47:47;101010.36;;;18.40;73.72
38612;BME280;24368;52.156;20.788;2022-07-29T07:52:52;101009.48;;;18.44;73.49
38612;BME280;24368;52.156;20.788;2022-07-29T07:57:54;101009.98;;;18.52;73.66
38612;BME280;24368;52.156;20.788;2022-07-29T08:02:56;101005.80;;;18.71;71.98
38612;BME280;24368;52.156;20.788;2022-07-29T08:07:57;101003.60;;;18.91;69.98
38612;BME280;24368;52.156;20.788;2022-07-29T08:12:59;101002.61;;;19.05;69.56
38612;BME280;24368;52.156;20.788;2022-07-29T08:18:02;100997.17;;;19.18;68.00
38612;BME280;24368;52.156;20.788;2022-07-29T08:23:04;101001.27;;;19.28;67.07
38612;BME280;24368;52.156;20.788;2022-07-29T08:28:07;101001.02;;;19.23;68.03
38612;BME280;24368;52.156;20.788;2022-07-29T08:33:08;101000.44;;;19.23;68.19
38612;BME280;24368;52.156;20.788;2022-07-29T08:38:10;101004.90;;;19.30;68.16
38612;BME280;24368;52.156;20.788;2022-07-29T08:43:11;101000.16;;;19.48;67.86
38612;BME280;24368;52.156;20.788;2022-07-29T08:48:13;100992.13;;;19.61;67.64
38612;BME280;24368;52.156;20.788;2022-07-29T08:53:16;100997.58;;;19.74;65.44
38612;BME280;24368;52.156;20.788;2022-07-29T08:58:18;100993.05;;;19.95;65.87
38612;BME280;24368;52.156;20.788;2022-07-29T09:03:20;100983.02;;;20.03;66.66
38612;BME280;24368;52.156;20.788;2022-07-29T09:08:21;100985.17;;;20.21;65.27
38612;BME280;24368;52.156;20.788;2022-07-29T09:13:24;100982.29;;;20.39;64.08
38612;BME280;24368;52.156;20.788;2022-07-29T09:23:37;100979.09;;;20.55;59.64
38612;BME280;24368;52.156;20.788;2022-07-29T09:28:41;100979.06;;;20.59;59.36
38612;BME280;24368;52.156;20.788;2022-07-29T09:33:43;100971.45;;;20.91;59.53
38612;BME280;24368;52.156;20.788;2022-07-29T09:38:44;100966.63;;;21.18;58.88
38612;BME280;24368;52.156;20.788;2022-07-29T09:43:58;100966.96;;;21.08;58.46
38612;BME280;24368;52.156;20.788;2022-07-29T09:49:09;100968.11;;;20.98;57.65
38612;BME280;24368;52.156;20.788;2022-07-29T09:59:25;100959.20;;;21.01;60.32
38612;BME280;24368;52.156;20.788;2022-07-29T10:04:40;100959.19;;;21.01;59.84
38612;BME280;24368;52.156;20.788;2022-07-29T10:09:49;100954.04;;;20.96;58.79
38612;BME280;24368;52.156;20.788;2022-07-29T10:14:51;100942.04;;;21.07;55.49
38612;BME280;24368;52.156;20.788;2022-07-29T10:19:52;100937.34;;;21.17;55.32
38612;BME280;24368;52.156;20.788;2022-07-29T10:24:54;100933.82;;;21.47;56.30
38612;BME280;24368;52.156;20.788;2022-07-29T10:29:55;100926.27;;;21.59;55.96
38612;BME280;24368;52.156;20.788;2022-07-29T10:35:01;100921.30;;;21.60;58.38
38612;BME280;24368;52.156;20.788;2022-07-29T10:45:34;100925.66;;;22.22;55.21
38612;BME280;24368;52.156;20.788;2022-07-29T10:55:56;100921.33;;;21.99;57.68
38612;BME280;24368;52.156;20.788;2022-07-29T11:00:57;100916.57;;;21.96;56.15
38612;BME280;24368;52.156;20.788;2022-07-29T11:06:19;100913.69;;;21.94;56.73
38612;BME280;24368;52.156;20.788;2022-07-29T11:16:22;100901.92;;;21.95;57.74
38612;BME280;24368;52.156;20.788;2022-07-29T11:21:35;100904.09;;;21.92;59.78
38612;BME280;24368;52.156;20.788;2022-07-29T11:26:37;100897.52;;;21.99;58.93
38612;BME280;24368;52.156;20.788;2022-07-29T11:31:42;100897.23;;;22.20;57.34
38612;BME280;24368;52.156;20.788;2022-07-29T11:47:19;100888.13;;;23.48;53.30
38612;BME280;24368;52.156;20.788;2022-07-29T11:52:21;100886.67;;;23.11;53.00
38612;BME280;24368;52.156;20.788;2022-07-29T11:57:22;100881.36;;;23.34;50.69
38612;BME280;24368;52.156;20.788;2022-07-29T12:02:24;100876.04;;;23.20;52.16
38612;BME280;24368;52.156;20.788;2022-07-29T12:07:31;100871.91;;;22.99;51.32
38612;BME280;24368;52.156;20.788;2022-07-29T12:12:33;100870.04;;;23.18;52.36
38612;BME280;24368;52.156;20.788;2022-07-29T12:17:35;100870.77;;;23.52;50.99
38612;BME280;24368;52.156;20.788;2022-07-29T12:22:41;100874.86;;;23.65;51.04
38612;BME280;24368;52.156;20.788;2022-07-29T12:27:45;100869.30;;;23.01;50.66
38612;BME280;24368;52.156;20.788;2022-07-29T12:32:47;100865.48;;;22.68;51.18
38612;BME280;24368;52.156;20.788;2022-07-29T12:37:49;100864.25;;;22.60;51.08
38612;BME280;24368;52.156;20.788;2022-07-29T12:43:09;100864.47;;;22.64;49.59
38612;BME280;24368;52.156;20.788;2022-07-29T12:48:11;100864.10;;;22.81;48.89
38612;BME280;24368;52.156;20.788;2022-07-29T12:53:12;100858.19;;;23.06;47.34
38612;BME280;24368;52.156;20.788;2022-07-29T12:58:57;100859.09;;;23.29;47.63
38612;BME280;24368;52.156;20.788;2022-07-29T13:14:00;100835.23;;;23.79;47.74
38612;BME280;24368;52.156;20.788;2022-07-29T13:19:05;100836.97;;;23.56;48.16
38612;BME280;24368;52.156;20.788;2022-07-29T13:24:07;100826.11;;;23.74;49.31
38612;BME280;24368;52.156;20.788;2022-07-29T13:29:08;100822.98;;;23.69;49.35
38612;BME280;24368;52.156;20.788;2022-07-29T13:34:10;100823.30;;;23.47;48.88
38612;BME280;24368;52.156;20.788;2022-07-29T13:39:12;100823.36;;;23.95;46.64
38612;BME280;24368;52.156;20.788;2022-07-29T13:44:13;100818.98;;;24.06;46.31
38612;BME280;24368;52.156;20.788;2022-07-29T13:49:14;100817.38;;;23.59;47.14
38612;BME280;24368;52.156;20.788;2022-07-29T13:54:16;100805.78;;;23.96;46.41
38612;BME280;24368;52.156;20.788;2022-07-29T13:59:17;100809.02;;;23.73;48.32
38612;BME280;24368;52.156;20.788;2022-07-29T14:04:19;100811.38;;;23.51;48.58
38612;BME280;24368;52.156;20.788;2022-07-29T14:09:20;100802.02;;;23.33;48.16
38612;BME280;24368;52.156;20.788;2022-07-29T14:14:22;100794.30;;;23.44;49.06
38612;BME280;24368;52.156;20.788;2022-07-29T14:19:23;100792.55;;;23.32;48.06
38612;BME280;24368;52.156;20.788;2022-07-29T14:24:25;100786.50;;;23.21;48.56
38612;BME280;24368;52.156;20.788;2022-07-29T14:29:26;100782.24;;;23.24;48.65
38612;BME280;24368;52.156;20.788;2022-07-29T14:34:28;100785.10;;;23.34;49.05
38612;BME280;24368;52.156;20.788;2022-07-29T14:39:29;100784.48;;;23.19;47.47
38612;BME280;24368;52.156;20.788;2022-07-29T14:44:31;100778.96;;;23.16;48.16
38612;BME280;24368;52.156;20.788;2022-07-29T14:49:32;100774.86;;;23.51;48.59
38612;BME280;24368;52.156;20.788;2022-07-29T14:54:33;100764.55;;;24.03;47.70
38612;BME280;24368;52.156;20.788;2022-07-29T14:59:35;100757.35;;;24.33;49.05
38612;BME280;24368;52.156;20.788;2022-07-29T15:04:36;100747.55;;;24.24;47.48
38612;BME280;24368;52.156;20.788;2022-07-29T15:09:38;100747.67;;;23.98;48.02
38612;BME280;24368;52.156;20.788;2022-07-29T15:14:39;100745.55;;;23.91;48.16
38612;BME280;24368;52.156;20.788;2022-07-29T15:19:41;100737.05;;;24.05;47.04
38612;BME280;24368;52.156;20.788;2022-07-29T15:24:42;100729.64;;;24.09;46.84
38612;BME280;24368;52.156;20.788;2022-07-29T15:29:44;100730.84;;;23.96;45.60
38612;BME280;24368;52.156;20.788;2022-07-29T15:34:45;100726.41;;;23.75;46.31
38612;BME280;24368;52.156;20.788;2022-07-29T15:39:47;100725.57;;;23.67;47.43
38612;BME280;24368;52.156;20.788;2022-07-29T15:44:48;100727.57;;;23.57;47.07
38612;BME280;24368;52.156;20.788;2022-07-29T15:49:49;100728.00;;;23.48;46.98
38612;BME280;24368;52.156;20.788;2022-07-29T15:54:51;100720.27;;;23.24;48.22
38612;BME280;24368;52.156;20.788;2022-07-29T15:59:52;100719.73;;;23.08;48.34
38612;BME280;24368;52.156;20.788;2022-07-29T16:04:54;100715.26;;;23.00;48.93
38612;BME280;24368;52.156;20.788;2022-07-29T16:09:55;100716.77;;;22.98;48.89
38612;BME280;24368;52.156;20.788;2022-07-29T16:14:56;100718.84;;;22.95;48.93
38612;BME280;24368;52.156;20.788;2022-07-29T16:19:58;100711.54;;;22.83;49.09
38612;BME280;24368;52.156;20.788;2022-07-29T16:24:59;100708.25;;;22.70;49.22
38612;BME280;24368;52.156;20.788;2022-07-29T16:30:01;100707.65;;;22.65;49.43
38612;BME280;24368;52.156;20.788;2022-07-29T16:35:02;100706.42;;;22.63;49.28
38612;BME280;24368;52.156;20.788;2022-07-29T16:40:05;100703.82;;;22.63;48.82
38612;BME280;24368;52.156;20.788;2022-07-29T16:45:08;100710.50;;;22.61;49.35
38612;BME280;24368;52.156;20.788;2022-07-29T16:50:09;100723.45;;;22.56;49.71
38612;BME280;24368;52.156;20.788;2022-07-29T16:55:11;100735.92;;;22.52;49.82
38612;BME280;24368;52.156;20.788;2022-07-29T17:00:13;100735.00;;;22.57;49.27
38612;BME280;24368;52.156;20.788;2022-07-29T17:05:15;100730.32;;;22.68;49.34
38612;BME280;24368;52.156;20.788;2022-07-29T17:10:16;100728.12;;;22.72;48.93
38612;BME280;24368;52.156;20.788;2022-07-29T17:15:18;100729.39;;;22.74;48.62
38612;BME280;24368;52.156;20.788;2022-07-29T17:20:19;100725.07;;;22.71;48.72
38612;BME280;24368;52.156;20.788;2022-07-29T17:25:21;100725.08;;;22.62;48.62
38612;BME280;24368;52.156;20.788;2022-07-29T17:30:22;100723.73;;;22.53;49.16
38612;BME280;24368;52.156;20.788;2022-07-29T17:35:24;100729.40;;;22.50;48.60
38612;BME280;24368;52.156;20.788;2022-07-29T17:40:44;100726.71;;;22.45;48.17
38612;BME280;24368;52.156;20.788;2022-07-29T17:45:45;100729.11;;;22.35;47.94
38612;BME280;24368;52.156;20.788;2022-07-29T17:50:47;100731.14;;;22.26;48.02
38612;BME280;24368;52.156;20.788;2022-07-29T17:55:48;100739.38;;;22.17;48.15
38612;BME280;24368;52.156;20.788;2022-07-29T18:00:50;100738.98;;;22.11;47.93
38612;BME280;24368;52.156;20.788;2022-07-29T18:05:52;100732.02;;;22.07;47.27
38612;BME280;24368;52.156;20.788;2022-07-29T18:10:53;100730.94;;;22.02;47.22
38612;BME280;24368;52.156;20.788;2022-07-29T18:15:55;100735.64;;;21.94;47.62
38612;BME280;24368;52.156;20.788;2022-07-29T18:20:57;100740.67;;;21.87;47.73
38612;BME280;24368;52.156;20.788;2022-07-29T18:25:58;100736.63;;;21.78;47.41
38612;BME280;24368;52.156;20.788;2022-07-29T18:31:00;100741.02;;;21.68;48.06
38612;BME280;24368;52.156;20.788;2022-07-29T18:36:02;100739.98;;;21.61;48.37
38612;BME280;24368;52.156;20.788;2022-07-29T18:41:04;100733.59;;;21.57;48.40
38612;BME280;24368;52.156;20.788;2022-07-29T18:46:05;100733.39;;;21.52;49.35
38612;BME280;24368;52.156;20.788;2022-07-29T18:51:07;100736.83;;;21.44;50.16
38612;BME280;24368;52.156;20.788;2022-07-29T18:56:08;100741.30;;;21.39;50.42
38612;BME280;24368;52.156;20.788;2022-07-29T19:01:10;100734.23;;;21.34;50.28
38612;BME280;24368;52.156;20.788;2022-07-29T19:06:12;100743.77;;;21.26;50.91
38612;BME280;24368;52.156;20.788;2022-07-29T19:11:13;100744.98;;;21.20;51.04
38612;BME280;24368;52.156;20.788;2022-07-29T19:16:15;100742.56;;;21.16;51.22
38612;BME280;24368;52.156;20.788;2022-07-29T19:21:16;100747.89;;;21.10;51.74
38612;BME280;24368;52.156;20.788;2022-07-29T19:26:18;100755.64;;;21.04;52.07
38612;BME280;24368;52.156;20.788;2022-07-29T19:31:20;100759.06;;;21.04;52.39
38612;BME280;24368;52.156;20.788;2022-07-29T19:36:22;100745.36;;;21.01;52.75
38612;BME280;24368;52.156;20.788;2022-07-29T19:41:23;100739.86;;;21.03;52.11
38612;BME280;24368;52.156;20.788;2022-07-29T19:46:25;100752.19;;;21.01;51.65
38612;BME280;24368;52.156;20.788;2022-07-29T19:51:28;100755.05;;;20.98;51.58
38612;BME280;24368;52.156;20.788;2022-07-29T19:56:30;100759.50;;;20.92;51.62
38612;BME280;24368;52.156;20.788;2022-07-29T20:01:32;100759.48;;;20.85;51.60
38612;BME280;24368;52.156;20.788;2022-07-29T20:06:33;100760.98;;;20.81;52.02
38612;BME280;24368;52.156;20.788;2022-07-29T20:11:35;100757.05;;;20.77;52.18
38612;BME280;24368;52.156;20.788;2022-07-29T20:16:37;100755.78;;;20.76;52.15
38612;BME280;24368;52.156;20.788;2022-07-29T20:21:39;100753.41;;;20.76;51.81
38612;BME280;24368;52.156;20.788;2022-07-29T20:26:40;100759.02;;;20.71;51.77
38612;BME280;24368;52.156;20.788;2022-07-29T20:31:42;100759.93;;;20.70;51.80
38612;BME280;24368;52.156;20.788;2022-07-29T20:36:43;100758.53;;;20.70;51.80
38612;BME280;24368;52.156;20.788;2022-07-29T20:41:45;100758.82;;;20.67;52.18
38612;BME280;24368;52.156;20.788;2022-07-29T20:46:46;100746.64;;;20.63;52.16
38612;BME280;24368;52.156;20.788;2022-07-29T20:51:48;100744.69;;;20.54;52.85
38612;BME280;24368;52.156;20.788;2022-07-29T20:56:50;100742.77;;;20.46;52.79
38612;BME280;24368;52.156;20.788;2022-07-29T21:01:51;100740.50;;;20.40;52.78
38612;BME280;24368;52.156;20.788;2022-07-29T21:06:55;100736.34;;;20.35;52.82
38612;BME280;24368;52.156;20.788;2022-07-29T21:11:56;100734.29;;;20.25;52.74
38612;BME280;24368;52.156;20.788;2022-07-29T21:16:59;100737.42;;;20.23;52.98
38612;BME280;24368;52.156;20.788;2022-07-29T21:22:01;100733.46;;;20.18;53.32
38612;BME280;24368;52.156;20.788;2022-07-29T21:27:03;100734.88;;;20.07;53.37
38612;BME280;24368;52.156;20.788;2022-07-29T21:32:23;100735.58;;;20.05;53.10
38612;BME280;24368;52.156;20.788;2022-07-29T21:37:24;100734.30;;;20.00;53.39
38612;BME280;24368;52.156;20.788;2022-07-29T21:42:25;100724.55;;;20.00;53.28
38612;BME280;24368;52.156;20.788;2022-07-29T21:47:27;100724.55;;;19.93;53.59
38612;BME280;24368;52.156;20.788;2022-07-29T21:52:28;100725.62;;;19.89;53.71
38612;BME280;24368;52.156;20.788;2022-07-29T21:57:30;100718.81;;;19.83;53.64
38612;BME280;24368;52.156;20.788;2022-07-29T22:02:31;100718.61;;;19.79;53.69
38612;BME280;24368;52.156;20.788;2022-07-29T22:07:33;100718.60;;;19.79;53.74
38612;BME280;24368;52.156;20.788;2022-07-29T22:12:34;100711.75;;;19.76;53.96
38612;BME280;24368;52.156;20.788;2022-07-29T22:17:35;100714.88;;;19.72;53.84
38612;BME280;24368;52.156;20.788;2022-07-29T22:22:37;100716.05;;;19.73;53.79
38612;BME280;24368;52.156;20.788;2022-07-29T22:27:39;100711.68;;;19.71;53.86
38612;BME280;24368;52.156;20.788;2022-07-29T22:32:40;100716.58;;;19.68;54.00
38612;BME280;24368;52.156;20.788;2022-07-29T22:37:42;100711.54;;;19.64;54.08
38612;BME280;24368;52.156;20.788;2022-07-29T22:42:43;100708.94;;;19.66;54.65
38612;BME280;24368;52.156;20.788;2022-07-29T22:47:45;100705.77;;;19.65;54.83
38612;BME280;24368;52.156;20.788;2022-07-29T22:52:46;100705.61;;;19.60;55.18
38612;BME280;24368;52.156;20.788;2022-07-29T22:57:48;100713.02;;;19.58;54.94
38612;BME280;24368;52.156;20.788;2022-07-29T23:02:49;100712.65;;;19.56;55.11
38612;BME280;24368;52.156;20.788;2022-07-29T23:07:50;100709.27;;;19.51;55.29
38612;BME280;24368;52.156;20.788;2022-07-29T23:12:52;100701.70;;;19.44;55.44
38612;BME280;24368;52.156;20.788;2022-07-29T23:17:53;100699.11;;;19.42;55.48
38612;BME280;24368;52.156;20.788;2022-07-29T23:22:54;100699.27;;;19.38;55.11
38612;BME280;24368;52.156;20.788;2022-07-29T23:27:56;100699.04;;;19.34;55.10
38612;BME280;24368;52.156;20.788;2022-07-29T23:32:57;100694.55;;;19.31;55.32
38612;BME280;24368;52.156;20.788;2022-07-29T23:37:59;100695.95;;;19.29;55.28
38612;BME280;24368;52.156;20.788;2022-07-29T23:43:00;100701.14;;;19.26;55.30
38612;BME280;24368;52.156;20.788;2022-07-29T23:48:02;100700.31;;;19.23;55.51
38612;BME280;24368;52.156;20.788;2022-07-29T23:53:03;100701.58;;;19.22;56.24
38612;BME280;24368;52.156;20.788;2022-07-29T23:58:05;100705.06;;;19.03;59.93
